Time;durP1;ratioP1;P1;durP2;ratioP2;P2;SDS_P1;SDS_P2;PMS_P1;PMS_P2;Temp;Humidity;BMP_temperature;BMP_pressure;BME280_temperature;BME280_humidity;BME280_pressure;Samples;Min_cycle;Max_cycle;Signal;HPM_P1;HPM_P2
2022/09/12 00:00:05;;;;;;;10.45;6.38;;;16.40;99.90;;;;;;5031132;28;20203;-64
2022/09/12 00:02:31;;;;;;;7.72;6.00;;;16.30;99.90;;;;;;5022102;28;20185;-64
2022/09/12 00:04:56;;;;;;;7.45;5.10;;;16.30;99.90;;;;;;5026555;28;20179;-63
2022/09/12 00:07:22;;;;;;;8.70;6.00;;;16.30;99.90;;;;;;5016689;28;20229;-64
2022/09/12 00:09:48;;;;;;;9.93;6.78;;;16.30;99.90;;;;;;5020254;28;20186;-64
2022/09/12 00:12:14;;;;;;;6.93;6.10;;;16.20;99.90;;;;;;5023253;28;20175;-64
2022/09/12 00:14:39;;;;;;;9.07;6.78;;;16.20;99.90;;;;;;5016462;28;20195;-64
2022/09/12 00:17:05;;;;;;;8.27;6.43;;;16.20;99.90;;;;;;5013268;28;20594;-65
2022/09/12 00:19:30;;;;;;;8.52;5.85;;;16.20;99.90;;;;;;5032026;28;20206;-64
2022/09/12 00:21:56;;;;;;;9.25;6.10;;;16.20;99.90;;;;;;5022840;28;20739;-65
2022/09/12 00:24:22;;;;;;;11.10;7.80;;;16.20;99.90;;;;;;5014389;28;20187;-64
2022/09/12 00:26:48;;;;;;;8.63;6.15;;;16.20;99.90;;;;;;5044959;28;20187;-64
2022/09/12 00:29:16;;;;;;;8.55;5.95;;;16.20;99.90;;;;;;5023153;28;20233;-64
2022/09/12 00:31:41;;;;;;;9.15;6.40;;;16.10;99.90;;;;;;5012878;28;20555;-64
2022/09/12 00:34:08;;;;;;;10.15;6.60;;;16.10;99.90;;;;;;5019780;28;20193;-63
2022/09/12 00:36:35;;;;;;;13.45;7.03;;;16.10;99.90;;;;;;5017718;28;20225;-64
2022/09/12 00:39:02;;;;;;;10.35;6.38;;;16.00;99.90;;;;;;5016779;28;20207;-63
2022/09/12 00:41:30;;;;;;;9.77;6.55;;;16.00;99.90;;;;;;5031761;28;20636;-64
2022/09/12 00:44:14;;;;;;;13.07;7.78;;;15.90;99.90;;;;;;5019159;28;20187;-64
2022/09/12 00:46:45;;;;;;;8.07;6.05;;;15.90;99.90;;;;;;5029782;28;20191;-64
2022/09/12 00:49:22;;;;;;;9.63;6.72;;;15.90;99.90;;;;;;5023511;28;20188;-64
2022/09/12 00:52:13;;;;;;;10.25;5.50;;;15.90;99.90;;;;;;5032738;28;20220;-64
2022/09/12 00:54:49;;;;;;;7.40;5.78;;;15.80;99.90;;;;;;5021228;28;20179;-64
2022/09/12 00:57:16;;;;;;;6.53;5.88;;;15.80;99.90;;;;;;5029536;28;20257;-64
2022/09/12 00:59:58;;;;;;;8.07;5.65;;;15.80;99.90;;;;;;5024948;28;20203;-64
2022/09/12 01:02:24;;;;;;;16.35;7.55;;;15.80;99.90;;;;;;5023746;28;20217;-64
2022/09/12 01:04:51;;;;;;;8.23;6.03;;;15.80;99.90;;;;;;5020514;28;20207;-64
2022/09/12 01:07:18;;;;;;;10.02;6.38;;;15.80;99.90;;;;;;5022673;28;20213;-64
2022/09/12 01:09:44;;;;;;;6.55;5.88;;;15.70;99.90;;;;;;5027923;28;20538;-64
2022/09/12 01:12:12;;;;;;;11.18;6.22;;;15.80;99.90;;;;;;5029716;28;20197;-64
2022/09/12 01:14:38;;;;;;;7.50;5.47;;;15.80;99.90;;;;;;5025350;28;20195;-64
2022/09/12 01:17:04;;;;;;;7.88;5.68;;;15.80;99.90;;;;;;5017365;28;20190;-64
2022/09/12 01:19:34;;;;;;;7.80;6.28;;;15.70;99.90;;;;;;5027443;28;20215;-64
2022/09/12 01:22:37;;;;;;;13.27;5.13;;;15.70;99.90;;;;;;5022209;28;20183;-64
2022/09/12 01:25:17;;;;;;;7.93;5.57;;;15.70;99.90;;;;;;5023833;28;20640;-64
2022/09/12 01:28:24;;;;;;;7.85;6.43;;;15.70;99.90;;;;;;5015747;28;20187;-64
2022/09/12 01:31:03;;;;;;;8.88;6.13;;;15.70;99.90;;;;;;5016080;28;20175;-64
2022/09/12 01:34:01;;;;;;;10.00;6.88;;;15.60;99.90;;;;;;5049551;28;20728;-64
2022/09/12 01:36:51;;;;;;;11.20;8.65;;;15.60;99.90;;;;;;5020912;28;20187;-64
2022/09/12 01:39:29;;;;;;;9.63;6.03;;;15.60;99.90;;;;;;5034320;28;20202;-64
2022/09/12 01:42:08;;;;;;;11.40;6.80;;;15.60;99.90;;;;;;5025024;28;20285;-64
2022/09/12 01:44:37;;;;;;;8.48;6.38;;;15.60;99.90;;;;;;5021141;28;20182;-64
2022/09/12 01:47:29;;;;;;;8.45;6.38;;;15.60;99.90;;;;;;5025256;28;20190;-64
2022/09/12 01:50:09;;;;;;;9.05;5.78;;;15.60;99.90;;;;;;5022436;28;20652;-64
2022/09/12 01:52:36;;;;;;;9.88;6.60;;;15.60;99.90;;;;;;5021657;28;20186;-64
2022/09/12 01:55:19;;;;;;;6.68;5.50;;;15.50;99.90;;;;;;5027360;28;20302;-64
2022/09/12 01:58:08;;;;;;;10.45;5.88;;;15.50;99.90;;;;;;5026211;28;20202;-64
2022/09/12 02:00:42;;;;;;;10.23;6.68;;;15.50;99.90;;;;;;5024137;28;20191;-64
2022/09/12 02:03:16;;;;;;;11.95;6.35;;;15.50;99.90;;;;;;5018295;28;20632;-64
2022/09/12 02:06:11;;;;;;;8.48;6.60;;;15.50;99.90;;;;;;5023954;28;20193;-64
2022/09/12 02:08:43;;;;;;;8.82;6.35;;;15.50;99.90;;;;;;5046917;28;20656;-64
2022/09/12 02:11:11;;;;;;;8.40;6.28;;;15.40;99.90;;;;;;5025597;28;20211;-64
2022/09/12 02:13:50;;;;;;;8.80;6.63;;;15.40;99.90;;;;;;5025773;28;20175;-64
2022/09/12 02:16:21;;;;;;;11.93;5.75;;;15.40;99.90;;;;;;5018281;28;20182;-65
2022/09/12 02:18:53;;;;;;;9.05;6.28;;;15.40;99.90;;;;;;5027033;28;20656;-64
2022/09/12 02:21:21;;;;;;;7.95;5.78;;;15.30;99.90;;;;;;5016527;28;20270;-64
2022/09/12 02:23:55;;;;;;;7.65;5.43;;;15.30;99.90;;;;;;5015535;28;20207;-64
2022/09/12 02:26:28;;;;;;;9.85;5.97;;;15.30;99.90;;;;;;5033412;28;20209;-64
2022/09/12 02:28:53;;;;;;;10.35;6.38;;;15.30;99.90;;;;;;5017731;28;20179;-64
2022/09/12 02:31:24;;;;;;;8.00;6.32;;;15.30;99.90;;;;;;5014538;28;20522;-64
2022/09/12 02:34:04;;;;;;;9.38;6.25;;;15.20;99.90;;;;;;5015181;28;20214;-64
2022/09/12 02:36:42;;;;;;;7.57;5.90;;;15.30;99.90;;;;;;5018113;28;20261;-64
2022/09/12 02:39:08;;;;;;;8.65;5.82;;;15.30;99.90;;;;;;5028062;28;20202;-64
2022/09/12 02:41:34;;;;;;;12.27;5.65;;;15.30;99.90;;;;;;5014768;28;20271;-64
2022/09/12 02:44:00;;;;;;;7.80;6.40;;;15.30;99.90;;;;;;5024388;28;20277;-64
2022/09/12 02:46:37;;;;;;;9.75;4.65;;;15.30;99.90;;;;;;5046795;28;20178;-64
2022/09/12 02:49:03;;;;;;;11.45;6.03;;;15.30;99.90;;;;;;5012992;28;20205;-65
2022/09/12 02:51:29;;;;;;;8.77;5.80;;;15.30;99.90;;;;;;5014415;28;20249;-64
2022/09/12 02:53:56;;;;;;;9.68;6.18;;;15.30;99.90;;;;;;5019027;28;20207;-64
2022/09/12 02:56:31;;;;;;;7.32;6.00;;;15.30;99.90;;;;;;5014441;28;20644;-64
2022/09/12 02:59:01;;;;;;;9.85;6.05;;;15.20;99.90;;;;;;5030771;28;20201;-64
2022/09/12 03:01:38;;;;;;;7.38;5.68;;;15.20;99.90;;;;;;5015277;28;20576;-65
2022/09/12 03:04:09;;;;;;;10.27;5.60;;;15.20;99.90;;;;;;5026014;28;20175;-64
2022/09/12 03:06:59;;;;;;;7.65;5.28;;;15.20;99.90;;;;;;5014442;28;20230;-64
2022/09/12 03:09:33;;;;;;;9.20;6.50;;;15.10;99.90;;;;;;5023475;28;20179;-64
2022/09/12 03:12:17;;;;;;;7.75;5.95;;;15.10;99.90;;;;;;5019902;28;20225;-64
2022/09/12 03:15:12;;;;;;;6.25;4.97;;;15.10;99.90;;;;;;5014091;28;21970;-64
2022/09/12 03:18:11;;;;;;;7.53;6.13;;;15.10;99.90;;;;;;5013944;28;20194;-64
2022/09/12 03:20:45;;;;;;;7.55;5.65;;;15.00;99.90;;;;;;5022316;28;20187;-64
2022/09/12 03:23:31;;;;;;;7.75;4.90;;;15.00;99.90;;;;;;5014059;28;20646;-64
2022/09/12 03:26:12;;;;;;;8.88;6.43;;;14.90;99.90;;;;;;5011362;28;20363;-64
2022/09/12 03:28:39;;;;;;;7.78;4.78;;;14.90;99.90;;;;;;5013286;28;20244;-64
2022/09/12 03:31:13;;;;;;;8.68;6.13;;;14.90;99.90;;;;;;5049480;28;20581;-65
2022/09/12 03:33:39;;;;;;;8.23;5.85;;;14.90;99.90;;;;;;5025358;28;20321;-64
2022/09/12 03:36:05;;;;;;;8.02;6.25;;;14.80;99.90;;;;;;5026184;28;20210;-64
2022/09/12 03:38:30;;;;;;;8.63;5.78;;;14.90;99.90;;;;;;5031931;28;20210;-64
2022/09/12 03:40:56;;;;;;;7.78;5.82;;;14.80;99.90;;;;;;5014636;28;20183;-64
2022/09/12 03:43:22;;;;;;;9.90;6.88;;;14.80;99.90;;;;;;5022736;28;20618;-64
2022/09/12 03:45:50;;;;;;;10.25;6.72;;;14.70;99.90;;;;;;5012051;28;20706;-64
2022/09/12 03:48:16;;;;;;;8.38;6.53;;;14.70;99.90;;;;;;5017323;28;20705;-64
2022/09/12 03:50:41;;;;;;;8.70;6.05;;;14.70;99.90;;;;;;5031493;28;20265;-65
2022/09/12 03:53:07;;;;;;;8.23;6.55;;;14.70;99.90;;;;;;5022251;28;20222;-64
2022/09/12 03:55:33;;;;;;;7.03;5.68;;;14.70;99.90;;;;;;5025201;28;20270;-64
2022/09/12 03:57:58;;;;;;;8.20;5.88;;;14.70;99.90;;;;;;5015939;28;20274;-64
2022/09/12 04:00:24;;;;;;;6.43;5.70;;;14.70;99.90;;;;;;5019552;28;20218;-64
2022/09/12 04:02:56;;;;;;;11.98;6.95;;;14.70;99.90;;;;;;5012696;28;20197;-64
2022/09/12 04:05:24;;;;;;;9.45;7.18;;;14.70;99.90;;;;;;5025515;28;20537;-64
2022/09/12 04:07:50;;;;;;;10.23;6.63;;;14.80;99.90;;;;;;5030567;28;20555;-64
2022/09/12 04:10:15;;;;;;;9.63;5.97;;;14.80;99.90;;;;;;5012019;28;20189;-63
2022/09/12 04:12:41;;;;;;;8.68;6.05;;;14.70;99.90;;;;;;5017600;28;20313;-64
2022/09/12 04:15:08;;;;;;;8.80;6.22;;;14.70;99.90;;;;;;5016726;28;21420;-64
2022/09/12 04:17:33;;;;;;;11.48;6.82;;;14.70;99.90;;;;;;5018929;28;20203;-64
2022/09/12 04:20:00;;;;;;;9.75;5.53;;;14.70;99.90;;;;;;5023581;28;20241;-64
2022/09/12 04:22:26;;;;;;;8.15;5.97;;;14.80;99.90;;;;;;5012901;28;20183;-64
2022/09/12 04:24:51;;;;;;;11.27;6.30;;;14.80;99.90;;;;;;5015865;28;20191;-64
2022/09/12 04:27:17;;;;;;;9.18;6.15;;;14.70;99.90;;;;;;5013409;28;20176;-63
2022/09/12 04:29:42;;;;;;;11.52;6.90;;;14.70;99.90;;;;;;5011484;28;20278;-64
2022/09/12 04:32:08;;;;;;;7.25;5.88;;;14.70;99.90;;;;;;5020037;28;20190;-64
2022/09/12 04:34:34;;;;;;;9.02;6.00;;;14.70;99.90;;;;;;5018321;28;20180;-64
2022/09/12 04:36:59;;;;;;;11.85;7.40;;;14.70;99.90;;;;;;5009699;28;20225;-64
2022/09/12 04:39:25;;;;;;;6.50;5.60;;;14.70;99.90;;;;;;5017259;28;20215;-63
2022/09/12 04:41:51;;;;;;;8.27;6.28;;;14.60;99.90;;;;;;5027774;28;20185;-64
2022/09/12 04:44:16;;;;;;;10.15;7.22;;;14.60;99.90;;;;;;5018163;28;20175;-63
2022/09/12 04:46:44;;;;;;;10.23;6.53;;;14.60;99.90;;;;;;5021802;28;20187;-63
2022/09/12 04:49:11;;;;;;;9.85;6.20;;;14.60;99.90;;;;;;5015680;28;20190;-66
2022/09/12 04:51:40;;;;;;;8.95;6.25;;;14.50;99.90;;;;;;5021645;28;20185;-65
2022/09/12 04:54:15;;;;;;;9.00;7.25;;;14.60;99.90;;;;;;5014165;28;20581;-63
2022/09/12 04:56:44;;;;;;;8.82;5.53;;;14.60;99.90;;;;;;5023662;28;20186;-63
2022/09/12 04:59:11;;;;;;;10.15;6.75;;;14.60;99.90;;;;;;5020122;28;20203;-63
2022/09/12 05:01:37;;;;;;;9.00;5.65;;;14.60;99.90;;;;;;5016305;28;20199;-63
2022/09/12 05:04:03;;;;;;;8.52;5.75;;;14.50;99.90;;;;;;5011170;28;20187;-62
2022/09/12 05:06:31;;;;;;;9.95;6.13;;;14.50;99.90;;;;;;5021743;28;20255;-62
2022/09/12 05:08:58;;;;;;;6.88;5.78;;;14.50;99.90;;;;;;5020502;28;20186;-62
2022/09/12 05:11:30;;;;;;;13.15;7.85;;;14.50;99.90;;;;;;5017915;28;20180;-63
2022/09/12 05:13:56;;;;;;;7.68;5.53;;;14.50;99.90;;;;;;5013324;28;20194;-62
2022/09/12 05:16:23;;;;;;;8.85;6.68;;;14.50;99.90;;;;;;5019913;28;20266;-62
2022/09/12 05:18:49;;;;;;;8.95;5.75;;;14.50;99.90;;;;;;5015119;28;20202;-62
2022/09/12 05:21:17;;;;;;;11.98;7.45;;;14.50;99.90;;;;;;5018705;28;20187;-62
2022/09/12 05:23:43;;;;;;;12.23;6.50;;;14.50;99.90;;;;;;5025269;28;20183;-63
2022/09/12 05:26:14;;;;;;;13.00;8.85;;;14.50;99.90;;;;;;5016521;28;20171;-62
2022/09/12 05:28:41;;;;;;;9.35;7.40;;;14.50;99.90;;;;;;5027340;28;20206;-63
2022/09/12 05:31:14;;;;;;;9.48;6.63;;;14.50;99.90;;;;;;5016330;28;20204;-62
2022/09/12 05:33:42;;;;;;;7.82;5.90;;;14.50;99.90;;;;;;5020295;28;20240;-63
2022/09/12 05:36:12;;;;;;;10.48;6.88;;;14.50;99.90;;;;;;5028072;28;20175;-62
2022/09/12 05:38:37;;;;;;;8.95;5.85;;;14.50;99.90;;;;;;5027732;28;20203;-61
2022/09/12 05:41:11;;;;;;;6.82;5.63;;;14.50;99.90;;;;;;5017497;28;20198;-63
2022/09/12 05:43:38;;;;;;;12.52;7.45;;;14.50;99.90;;;;;;5019680;28;20175;-62
2022/09/12 05:46:09;;;;;;;9.13;6.70;;;14.50;99.90;;;;;;5019302;28;20225;-63
2022/09/12 05:48:36;;;;;;;9.15;6.75;;;14.50;99.90;;;;;;5027494;28;20186;-63
2022/09/12 05:51:06;;;;;;;11.85;6.75;;;14.50;99.90;;;;;;5046754;28;20183;-62
2022/09/12 05:53:32;;;;;;;10.13;7.50;;;14.60;99.90;;;;;;5015050;28;20178;-62
2022/09/12 05:56:09;;;;;;;12.38;8.32;;;14.60;99.90;;;;;;5018915;28;20188;-62
2022/09/12 05:58:36;;;;;;;12.48;7.85;;;14.60;99.90;;;;;;5029315;28;20214;-63
2022/09/12 06:01:07;;;;;;;12.07;6.95;;;14.60;99.90;;;;;;5022253;28;20233;-63
2022/09/12 06:03:44;;;;;;;12.60;7.45;;;14.60;99.90;;;;;;5060813;28;20183;-63
2022/09/12 06:06:12;;;;;;;11.15;6.63;;;14.60;99.90;;;;;;5026566;28;20255;-63
2022/09/12 06:08:39;;;;;;;9.43;7.22;;;14.70;99.90;;;;;;5034292;28;20252;-62
2022/09/12 06:11:06;;;;;;;9.80;6.43;;;14.70;99.90;;;;;;5020858;28;20187;-62
2022/09/12 06:13:35;;;;;;;14.13;8.60;;;14.80;99.90;;;;;;5021255;28;20566;-62
2022/09/12 06:16:07;;;;;;;10.00;7.03;;;14.70;99.90;;;;;;5022950;28;20197;-62
2022/09/12 06:18:33;;;;;;;14.15;8.43;;;14.80;99.90;;;;;;5016191;28;20213;-63
2022/09/12 06:21:07;;;;;;;12.52;7.60;;;14.90;99.90;;;;;;5024775;28;20187;-62
2022/09/12 06:23:33;;;;;;;11.73;7.88;;;15.00;99.90;;;;;;5024189;28;20691;-63
2022/09/12 06:26:00;;;;;;;12.55;8.57;;;15.10;99.90;;;;;;5030994;28;20221;-62
2022/09/12 06:28:26;;;;;;;14.90;9.10;;;15.20;99.90;;;;;;5017572;28;20277;-63
2022/09/12 06:30:52;;;;;;;18.25;9.55;;;15.40;99.90;;;;;;5020966;28;20217;-62
2022/09/12 06:33:18;;;;;;;16.52;9.35;;;15.60;99.90;;;;;;5032464;28;20640;-62
2022/09/12 06:35:44;;;;;;;18.70;10.35;;;15.80;99.90;;;;;;5015511;28;20278;-62
2022/09/12 06:38:10;;;;;;;18.77;9.07;;;15.80;99.90;;;;;;5014137;28;20274;-63
2022/09/12 06:40:45;;;;;;;13.93;8.50;;;15.90;99.90;;;;;;5015451;28;20219;-63
2022/09/12 06:43:13;;;;;;;15.68;9.10;;;15.90;99.90;;;;;;5015003;28;20185;-63
2022/09/12 06:45:39;;;;;;;12.40;8.85;;;16.10;99.90;;;;;;5025664;28;20191;-63
2022/09/12 06:48:05;;;;;;;13.68;8.77;;;16.10;99.90;;;;;;5027102;28;20238;-63
2022/09/12 06:50:30;;;;;;;14.88;7.82;;;16.10;99.90;;;;;;5019443;28;20245;-63
2022/09/12 06:52:56;;;;;;;17.45;8.70;;;16.20;99.90;;;;;;5016910;28;20205;-63
2022/09/12 06:55:23;;;;;;;12.98;8.55;;;16.20;99.90;;;;;;5018154;28;20235;-64
2022/09/12 06:57:49;;;;;;;10.45;6.82;;;16.30;99.90;;;;;;5012519;28;20237;-63
2022/09/12 07:00:15;;;;;;;10.88;7.80;;;16.50;99.90;;;;;;5025920;28;20211;-63
2022/09/12 07:02:40;;;;;;;11.15;8.63;;;16.50;99.90;;;;;;5012914;28;20538;-63
2022/09/12 07:05:07;;;;;;;12.27;8.25;;;16.60;99.90;;;;;;5027363;28;20182;-63
2022/09/12 07:07:34;;;;;;;14.55;8.35;;;16.60;99.90;;;;;;5012468;28;20204;-62
2022/09/12 07:10:00;;;;;;;12.60;7.40;;;16.70;99.90;;;;;;5028063;28;20199;-62
2022/09/12 07:12:28;;;;;;;9.15;6.97;;;16.80;99.90;;;;;;5033032;28;20175;-63
2022/09/12 07:14:54;;;;;;;13.57;7.35;;;16.80;99.90;;;;;;5017799;28;20314;-62
2022/09/12 07:17:19;;;;;;;8.82;6.32;;;16.90;99.90;;;;;;5025493;28;20725;-62
2022/09/12 07:19:45;;;;;;;12.50;8.15;;;17.30;99.90;;;;;;5029192;28;20233;-62
2022/09/12 07:22:11;;;;;;;8.15;5.88;;;18.70;99.90;;;;;;5012279;28;20187;-62
2022/09/12 07:24:37;;;;;;;6.00;4.75;;;20.20;99.90;;;;;;5013442;28;20175;-63
2022/09/12 07:27:03;;;;;;;8.68;5.00;;;21.80;99.90;;;;;;5019822;28;20196;-63
2022/09/12 07:29:28;;;;;;;5.72;4.45;;;23.50;99.90;;;;;;5012708;28;20261;-61
2022/09/12 07:31:54;;;;;;;5.88;3.80;;;24.90;99.90;;;;;;5013723;28;20278;-61
2022/09/12 07:34:20;;;;;;;7.05;3.97;;;26.20;99.90;;;;;;5016058;28;20280;-61
2022/09/12 07:36:45;;;;;;;8.07;4.13;;;27.30;99.90;;;;;;5014089;28;20277;-62
2022/09/12 07:39:11;;;;;;;4.28;3.75;;;28.10;99.90;;;;;;5024619;28;20217;-62
2022/09/12 07:41:37;;;;;;;5.63;3.35;;;28.80;99.90;;;;;;5012313;28;20186;-62
2022/09/12 07:44:05;;;;;;;4.13;3.25;;;29.40;99.90;;;;;;5032368;28;20178;-62
2022/09/12 07:46:31;;;;;;;4.57;3.33;;;30.10;99.90;;;;;;5021313;28;20285;-62
2022/09/12 07:48:59;;;;;;;3.45;2.97;;;30.30;99.90;;;;;;5045107;28;20281;-62
2022/09/12 07:51:26;;;;;;;6.57;2.45;;;30.20;99.90;;;;;;5024421;28;20182;-62
2022/09/12 07:53:52;;;;;;;6.35;3.30;;;30.20;99.90;;;;;;5012268;28;20214;-62
2022/09/12 07:56:18;;;;;;;3.10;2.80;;;30.10;99.90;;;;;;5013116;28;20206;-61
2022/09/12 07:58:45;;;;;;;4.68;3.83;;;30.10;99.90;;;;;;5013447;28;20206;-61
2022/09/12 08:01:13;;;;;;;2.30;2.08;;;30.00;99.90;;;;;;5013032;28;20199;-62
2022/09/12 08:03:40;;;;;;;2.42;2.28;;;29.90;99.90;;;;;;5013019;28;20181;-62
2022/09/12 08:09:28;;;;;;;5.25;2.30;;;30.20;99.90;;;;;;5013627;28;20261;-62
2022/09/12 08:11:54;;;;;;;4.28;2.65;;;30.30;99.90;;;;;;5015484;28;20198;-62
2022/09/12 08:14:20;;;;;;;2.22;2.03;;;30.20;99.90;;;;;;5021207;28;20274;-61
2022/09/12 08:16:46;;;;;;;2.70;2.42;;;29.60;99.90;;;;;;5012464;28;20186;-62
2022/09/12 08:19:12;;;;;;;2.80;2.60;;;29.30;99.90;;;;;;5012941;28;20206;-62
2022/09/12 08:21:38;;;;;;;3.85;2.75;;;28.70;99.90;;;;;;4995033;28;20293;-62
2022/09/12 08:24:05;;;;;;;2.65;2.15;;;28.80;99.90;;;;;;5012919;28;20696;-61
2022/09/12 08:26:32;;;;;;;5.70;2.53;;;29.00;99.90;;;;;;5013003;28;20194;-62
2022/09/12 08:28:57;;;;;;;9.05;2.90;;;29.00;99.90;;;;;;5011844;28;20182;-62
2022/09/12 08:31:25;;;;;;;4.15;2.63;;;29.30;99.90;;;;;;5019007;28;20179;-62
2022/09/12 08:33:54;;;;;;;7.82;2.85;;;28.60;99.90;;;;;;5059458;28;20198;-61
2022/09/12 08:36:22;;;;;;;2.45;2.25;;;28.20;99.90;;;;;;5031551;28;20208;-64
2022/09/12 08:38:50;;;;;;;2.20;2.00;;;27.70;99.90;;;;;;5015587;28;20202;-64
2022/09/12 08:41:38;;;;;;;3.78;3.17;;;27.80;99.90;;;;;;5012888;28;20175;-62
2022/09/12 08:44:10;;;;;;;3.05;2.60;;;27.30;99.90;;;;;;5012129;28;20221;-62
2022/09/12 08:47:01;;;;;;;6.53;3.70;;;26.60;99.90;;;;;;5012588;28;20175;-62
2022/09/12 08:49:29;;;;;;;4.43;3.20;;;25.90;99.90;;;;;;5012064;28;20708;-62
2022/09/12 08:51:58;;;;;;;4.28;2.85;;;25.20;99.90;;;;;;5012816;28;20222;-62
2022/09/12 08:54:27;;;;;;;4.45;3.22;;;24.80;99.90;;;;;;5010705;28;20195;-63
2022/09/12 08:57:04;;;;;;;3.95;3.15;;;24.40;99.90;;;;;;5015303;28;20179;-61
2022/09/12 08:59:38;;;;;;;3.13;2.78;;;24.10;99.90;;;;;;5016158;28;20253;-62
2022/09/12 09:02:18;;;;;;;2.60;2.40;;;24.00;99.90;;;;;;5029288;28;20186;-61
2022/09/12 09:05:10;;;;;;;24.10;7.55;;;23.90;99.90;;;;;;5026336;28;20206;-62
2022/09/12 09:07:39;;;;;;;5.28;2.85;;;23.90;99.90;;;;;;5032005;28;20198;-61
2022/09/12 09:10:25;;;;;;;3.35;3.05;;;23.80;99.90;;;;;;5025268;28;20186;-61
2022/09/12 09:13:12;;;;;;;2.50;2.28;;;23.60;99.90;;;;;;5021849;28;20250;-61
2022/09/12 09:15:48;;;;;;;2.97;2.78;;;23.60;99.90;;;;;;5020901;28;20272;-61
2022/09/12 09:18:22;;;;;;;2.95;2.35;;;23.60;99.90;;;;;;5054957;28;20179;-61
2022/09/12 09:21:00;;;;;;;7.18;3.55;;;23.50;99.90;;;;;;5030965;28;20577;-62
2022/09/12 09:23:29;;;;;;;3.10;2.90;;;23.60;99.90;;;;;;5026463;28;20171;-61
2022/09/12 09:26:25;;;;;;;3.83;2.22;;;23.60;99.90;;;;;;5029125;28;20660;-61
2022/09/12 09:29:29;;;;;;;7.20;3.15;;;23.80;99.90;;;;;;5018394;28;20187;-63
2022/09/12 09:32:00;;;;;;;5.30;3.03;;;23.90;99.90;;;;;;5022799;28;20241;-61
2022/09/12 09:34:30;;;;;;;2.40;2.20;;;23.70;99.90;;;;;;5025597;28;20210;-62
2022/09/12 09:37:25;;;;;;;3.15;2.78;;;23.60;99.90;;;;;;5022974;28;20187;-60
2022/09/12 09:40:34;;;;;;;2.85;2.20;;;23.70;99.90;;;;;;5017774;28;20222;-61
2022/09/12 09:43:15;;;;;;;2.33;1.98;;;23.60;99.90;;;;;;5029509;28;20229;-61
2022/09/12 09:45:41;;;;;;;11.63;2.72;;;23.60;99.90;;;;;;5054769;28;20187;-62
2022/09/12 09:48:17;;;;;;;3.17;2.90;;;23.70;99.90;;;;;;5061741;28;20541;-61
2022/09/12 09:50:45;;;;;;;5.60;2.75;;;23.50;99.90;;;;;;5015625;28;20182;-62
2022/09/12 09:53:39;;;;;;;2.20;2.00;;;23.50;99.90;;;;;;5018868;28;20187;-61
2022/09/12 09:56:33;;;;;;;2.35;2.15;;;23.60;99.90;;;;;;5022488;28;20171;-63
2022/09/12 09:59:27;;;;;;;2.85;2.55;;;23.80;99.90;;;;;;5046876;28;20680;-61
2022/09/12 10:01:56;;;;;;;2.70;2.25;;;23.80;99.90;;;;;;5020633;28;20320;-62
2022/09/12 10:04:28;;;;;;;3.03;1.92;;;23.80;99.90;;;;;;5015373;28;20182;-62
2022/09/12 10:06:59;;;;;;;1.80;1.70;;;23.80;99.90;;;;;;5014571;28;20191;-62
2022/09/12 10:09:33;;;;;;;4.18;2.30;;;23.80;99.90;;;;;;5024495;28;20175;-62
2022/09/12 10:12:18;;;;;;;3.13;2.85;;;23.80;99.90;;;;;;5025694;28;20192;-61
2022/09/12 10:14:56;;;;;;;3.67;2.08;;;24.00;99.90;;;;;;5013680;28;20183;-61
2022/09/12 10:17:26;;;;;;;2.10;1.88;;;23.70;99.90;;;;;;5014840;28;20190;-62
2022/09/12 10:19:52;;;;;;;2.15;1.95;;;23.60;99.90;;;;;;5018072;28;20202;-62
2022/09/12 10:22:21;;;;;;;2.88;2.60;;;23.60;99.90;;;;;;5013368;28;20195;-62
2022/09/12 10:24:56;;;;;;;4.95;2.40;;;23.90;99.90;;;;;;5014543;28;20171;-62
2022/09/12 10:27:28;;;;;;;2.33;2.13;;;23.80;99.90;;;;;;5020527;28;20174;-62
2022/09/12 10:30:05;;;;;;;2.75;2.03;;;23.90;99.90;;;;;;5020469;28;20182;-62
2022/09/12 10:32:40;;;;;;;2.55;1.92;;;24.10;99.90;;;;;;5026145;28;20580;-62
2022/09/12 10:35:16;;;;;;;1.67;1.58;;;24.00;99.90;;;;;;5020397;28;20262;-62
2022/09/12 10:38:09;;;;;;;2.83;1.85;;;24.20;99.90;;;;;;5014600;28;20191;-61
2022/09/12 10:40:41;;;;;;;2.67;1.75;;;24.30;99.90;;;;;;5031689;28;20307;-61
2022/09/12 10:43:25;;;;;;;2.65;1.60;;;24.10;99.90;;;;;;5033444;28;20175;-61
2022/09/12 10:45:55;;;;;;;1.38;1.27;;;24.10;99.90;;;;;;5012464;28;20274;-61
2022/09/12 10:48:27;;;;;;;1.60;1.50;;;23.90;99.90;;;;;;5015521;28;20221;-61
2022/09/12 10:50:53;;;;;;;2.80;1.92;;;24.00;99.90;;;;;;5028121;28;20254;-61
2022/09/12 10:53:20;;;;;;;2.35;1.80;;;24.20;99.90;;;;;;5022925;28;20659;-61
2022/09/12 10:56:11;;;;;;;2.60;2.03;;;24.30;99.90;;;;;;5014104;28;20333;-61
2022/09/12 10:58:54;;;;;;;4.00;2.30;;;24.00;99.90;;;;;;5023947;28;20199;-61
2022/09/12 11:01:44;;;;;;;1.73;1.63;;;24.10;99.90;;;;;;5024326;28;20744;-60
2022/09/12 11:04:28;;;;;;;2.20;1.80;;;24.10;99.90;;;;;;5016567;28;20179;-61
2022/09/12 11:06:56;;;;;;;2.30;2.10;;;24.20;99.90;;;;;;5028115;28;20191;-61
2022/09/12 11:09:27;;;;;;;1.83;1.73;;;24.20;99.90;;;;;;5027261;28;20187;-62
2022/09/12 11:12:21;;;;;;;3.38;1.88;;;24.30;99.90;;;;;;5024760;28;20674;-62
2022/09/12 11:15:17;;;;;;;1.88;1.77;;;24.40;99.90;;;;;;5013269;28;20179;-62
2022/09/12 11:18:01;;;;;;;1.50;1.40;;;24.10;99.90;;;;;;5014202;28;20254;-61
2022/09/12 11:20:42;;;;;;;2.47;1.63;;;24.10;99.90;;;;;;5022497;28;20203;-61
2022/09/12 11:23:40;;;;;;;2.08;1.88;;;24.10;99.90;;;;;;5021640;28;20657;-61
2022/09/12 11:26:21;;;;;;;1.98;1.80;;;24.30;99.90;;;;;;5025229;28;20179;-61
2022/09/12 11:29:11;;;;;;;1.90;1.75;;;24.50;99.90;;;;;;5017078;28;20643;-62
2022/09/12 11:31:51;;;;;;;1.63;1.52;;;24.60;99.90;;;;;;5024142;28;20624;-61
2022/09/12 11:34:33;;;;;;;2.28;2.13;;;24.50;99.90;;;;;;5026462;28;20613;-61
2022/09/12 11:37:34;;;;;;;1.90;1.50;;;24.50;99.90;;;;;;5026927;28;20198;-61
2022/09/12 11:40:18;;;;;;;1.63;1.38;;;24.70;99.90;;;;;;5021821;28;20208;-62
2022/09/12 11:42:51;;;;;;;3.03;1.90;;;24.70;99.90;;;;;;5027848;28;20217;-61
2022/09/12 11:45:31;;;;;;;1.50;1.40;;;24.90;99.90;;;;;;5027986;28;20242;-61
2022/09/12 11:48:02;;;;;;;1.70;1.60;;;24.90;99.90;;;;;;5026819;28;20175;-62
2022/09/12 11:50:30;;;;;;;1.40;1.30;;;25.00;99.90;;;;;;5013308;28;20214;-63
2022/09/12 11:53:15;;;;;;;2.78;1.20;;;24.80;99.90;;;;;;5012751;28;20213;-62
2022/09/12 11:56:11;;;;;;;1.55;1.45;;;24.80;99.90;;;;;;5011945;28;20640;-63
2022/09/12 11:58:40;;;;;;;1.80;1.70;;;24.80;99.90;;;;;;5013044;28;20264;-63
2022/09/12 12:01:16;;;;;;;2.28;1.80;;;24.80;99.90;;;;;;5013236;28;20175;-62
2022/09/12 12:03:44;;;;;;;1.48;1.38;;;25.00;99.90;;;;;;5013769;28;20611;-63
2022/09/12 12:06:32;;;;;;;1.60;1.50;;;25.10;99.90;;;;;;5046017;28;20190;-62
2022/09/12 12:08:58;;;;;;;3.17;1.63;;;25.00;99.90;;;;;;5021470;28;20217;-62
2022/09/12 12:11:36;;;;;;;3.22;2.00;;;25.20;99.90;;;;;;5021511;28;20214;-63
2022/09/12 12:14:20;;;;;;;1.42;1.40;;;25.10;99.90;;;;;;5028793;28;20561;-62
2022/09/12 12:16:48;;;;;;;1.90;1.67;;;25.20;99.90;;;;;;5018430;28;20182;-63
2022/09/12 12:19:13;;;;;;;2.17;1.50;;;25.20;99.90;;;;;;5018238;28;20229;-62
2022/09/12 12:21:42;;;;;;;1.85;1.73;;;25.50;99.90;;;;;;5016840;28;20180;-63
2022/09/12 12:24:08;;;;;;;3.28;1.70;;;25.60;99.90;;;;;;5030541;28;20228;-63
2022/09/12 12:26:40;;;;;;;2.03;1.80;;;25.70;99.90;;;;;;5026914;28;20183;-62
2022/09/12 12:29:20;;;;;;;1.40;1.35;;;25.60;99.90;;;;;;5019477;28;20214;-63
2022/09/12 12:31:58;;;;;;;1.35;1.30;;;25.50;99.90;;;;;;5024185;28;20181;-62
2022/09/12 12:34:40;;;;;;;1.75;1.60;;;25.50;99.90;;;;;;5016639;28;20257;-63
2022/09/12 12:37:17;;;;;;;6.40;2.50;;;25.60;99.90;;;;;;5016852;28;20202;-62
2022/09/12 12:39:54;;;;;;;1.70;1.60;;;25.70;99.90;;;;;;5016112;28;20203;-62
2022/09/12 12:42:34;;;;;;;2.50;2.30;;;25.70;99.90;;;;;;5016953;28;20183;-63
2022/09/12 12:45:19;;;;;;;1.67;1.58;;;25.80;99.90;;;;;;5016658;28;20183;-60
2022/09/12 12:47:49;;;;;;;3.35;1.83;;;25.80;99.90;;;;;;5017265;28;20191;-62
2022/09/12 12:50:22;;;;;;;1.85;1.55;;;26.00;99.90;;;;;;5017807;28;20546;-61
2022/09/12 12:53:03;;;;;;;4.97;2.03;;;25.80;99.90;;;;;;5025552;28;20680;-61
2022/09/12 12:55:39;;;;;;;2.05;1.70;;;25.90;99.90;;;;;;5018447;28;20183;-62
2022/09/12 12:58:25;;;;;;;4.90;1.77;;;25.90;99.90;;;;;;5030865;28;20175;-62
2022/09/12 13:01:10;;;;;;;2.58;1.40;;;25.80;99.90;;;;;;5033039;28;20241;-61
2022/09/12 13:03:38;;;;;;;1.52;1.42;;;25.60;99.90;;;;;;5015412;28;20183;-61
2022/09/12 13:06:07;;;;;;;1.67;1.58;;;25.80;99.90;;;;;;5015936;28;20193;-61
2022/09/12 13:08:37;;;;;;;1.70;1.60;;;25.80;99.90;;;;;;5016367;28;20625;-62
2022/09/12 13:11:07;;;;;;;2.08;1.58;;;25.50;99.90;;;;;;5016272;28;20269;-61
2022/09/12 13:13:50;;;;;;;1.45;1.42;;;25.40;99.90;;;;;;5016234;28;20183;-61
2022/09/12 13:16:32;;;;;;;2.58;1.48;;;25.50;99.90;;;;;;5014914;28;20183;-61